Log in

Premier Institutional Ownership (NASDAQ:PINC)

$32.72
+1.05 (+3.32 %)
(As of 04/1/2020 06:00 AM ET)
Today's Range
$31.38
Now: $32.72
$33.69
50-Day Range
$27.40
MA: $30.77
$34.95
52-Week Range
$27.11
Now: $32.72
$40.13
Volume1.05 million shs
Average Volume997,588 shs
Market Capitalization$3.98 billion
P/E RatioN/A
Dividend YieldN/A
Beta0.46

Institutional Ownership

Institutional Ownership Changes (13F Filings) for Premier (NASDAQ:PINC)

Institutional Ownership Percentage: 55.66%

Institutional Buying and Selling by Quarter

Premier (NASDAQ PINC) Institutional Buying and Selling

Reporting DateHedge FundShares HeldMarket Value% of PortfolioQuarterly Change in SharesOwnership in Company
3/11/2020Franklin Resources Inc.7,812$0.30M0.0%N/A0.006%
3/5/2020Nuveen Asset Management LLC124,974$4.73M0.0%-5.9%0.103%
3/3/2020Norges Bank1,217,330$46.11M0.0%N/A1.000%
2/28/2020Kennedy Capital Management Inc.202,819$7.68M0.2%-25.0%0.167%
2/28/2020Sofos Investments Inc.818$31K0.0%-31.1%0.001%
2/24/2020Stephenson National Bank & Trust2,226$84K0.1%N/A0.002%
2/21/2020Quantum Capital Management4,763$0.18M0.1%-13.1%0.004%
2/20/2020Geode Capital Management LLC746,673$28.28M0.0%+12.0%0.613%
2/18/2020HM Payson & Co.1,655$63K0.0%-50.7%0.001%
2/18/2020Brinker Capital Inc.18,996$0.72M0.0%-37.2%0.016%
2/18/2020Alliancebernstein L.P.127,148$4.82M0.0%+450.1%0.104%
2/18/2020AXA22,200$0.84M0.0%N/A0.018%
2/18/2020Man Group plc480,232$18.19M0.1%+8.6%0.394%
2/17/2020Alberta Investment Management Corp58,100$2.20M0.0%-23.5%0.048%
2/17/2020Ladenburg Thalmann Financial Services Inc.4,066$0.16M0.0%-30.4%0.003%
2/14/2020Point72 Asset Management L.P.23,136$0.88M0.0%-31.4%0.019%
2/14/2020Cubist Systematic Strategies LLC65,906$2.50M0.0%-38.3%0.054%
2/14/2020AQR Capital Management LLC75,670$2.87M0.0%+86.3%0.062%
2/14/2020Bank of America Corp DE559,685$21.20M0.0%+83.0%0.459%
2/14/2020UBS Asset Management Americas Inc.88,745$3.36M0.0%-12.7%0.073%
2/14/2020Bank of New York Mellon Corp1,578,958$59.81M0.0%+4.0%1.294%
2/14/2020Knights of Columbus Asset Advisors LLC48,212$1.83M0.2%N/A0.040%
2/14/2020Goldman Sachs Group Inc.388,255$14.71M0.0%+33.9%0.318%
2/14/2020Guggenheim Capital LLC150,184$5.69M0.0%-36.6%0.123%
2/14/2020UBS Group AG80,643$3.06M0.0%-13.1%0.066%
2/14/2020Dynamic Technology Lab Private Ltd7,658$0.29M0.0%-36.1%0.006%
2/14/2020Mairs & Power INC263,959$10M0.1%-8.4%0.216%
2/13/2020Massachusetts Financial Services Co. MA6,191,160$234.52M0.1%+2.2%5.074%
2/13/2020Meeder Asset Management Inc.875$33K0.0%-51.6%0.001%
2/13/2020Banco Bilbao Vizcaya Argentaria S.A.72,453$2.74M0.1%N/A0.059%
2/13/2020Oxford Asset Management LLP30,572$1.16M0.0%+36.0%0.025%
2/13/2020PEAK6 Investments LLC27,094$1.03M0.0%N/A0.022%
2/13/2020Amalgamated Bank13,929$0.53M0.0%+36.3%0.011%
2/13/2020Brandes Investment Partners LP16,614$0.63M0.0%+8.1%0.014%
2/13/2020Stifel Financial Corp12,560$0.48M0.0%-21.3%0.010%
2/13/2020Renaissance Technologies LLC3,680,209$139.41M0.1%+3.0%3.016%
2/12/2020AlphaCrest Capital Management LLC13,775$0.52M0.0%-76.0%0.011%
2/12/2020NumerixS Investment Technologies Inc10,100$0.38M0.1%-59.6%0.008%
2/12/2020BRITISH COLUMBIA INVESTMENT MANAGEMENT Corp1,078,901$40.87M0.3%+10.1%0.884%
2/12/2020Credit Suisse AG1,229,068$46.56M0.0%+1.0%1.007%
2/12/2020Advisor Group Inc.2,456$93K0.0%-40.6%0.002%
2/12/2020Vestcor Investment Management Corp80,000$3.03M0.1%N/A0.066%
2/12/2020Raymond James & Associates735,170$27.85M0.0%-4.8%0.602%
2/12/2020Franklin Resources Inc.7,812$0.30M0.0%N/A0.006%
2/12/2020River Road Asset Management LLC4,248,141$160.92M2.5%+20.3%3.482%
2/12/2020Citigroup Inc.34,290$1.30M0.0%+135.9%0.028%
2/11/2020BNP PARIBAS ASSET MANAGEMENT Holding S.A.1,156,280$43.80M0.3%+8.3%0.948%
2/11/2020Great West Life Assurance Co. Can4,045$0.15M0.0%N/A0.003%
2/11/2020Atria Investments LLC9,477$0.36M0.0%N/A0.008%
2/11/2020Spark Investment Management LLC24,000$0.91M0.1%N/A0.020%
2/11/2020Islay Capital Management LLC2,372$90K0.1%N/A0.002%
2/11/2020Schroder Investment Management Group108,110$4.10M0.0%+21.2%0.089%
2/11/2020Envestnet Asset Management Inc.61,394$2.33M0.0%-40.8%0.050%
2/10/2020Barclays PLC58,495$2.22M0.0%+700.4%0.048%
2/10/2020Argent Capital Management LLC105,130$3.98M0.1%+32.6%0.086%
2/10/2020Pacer Advisors Inc.25,944$0.98M0.0%+12.0%0.021%
2/10/2020Martingale Asset Management L P5,406$0.21M0.0%-98.9%0.004%
2/10/2020GW&K Investment Management LLC480,443$18.20M0.2%-38.2%0.394%
2/10/2020Banque Cantonale Vaudoise8,321$0.32M0.0%N/A0.007%
2/10/2020Natixis Advisors L.P.29,213$1.11M0.0%-12.7%0.024%
2/7/2020FMR LLC4,744,256$179.71M0.0%-4.0%3.888%
2/7/2020Jennison Associates LLC656,768$24.88M0.0%-0.6%0.538%
2/7/2020Great Lakes Advisors LLC233,912$8.86M0.2%N/A0.192%
2/7/2020ETRADE Capital Management LLC13,804$0.52M0.0%N/A0.011%
2/7/2020Machina Capital S.A.S.10,494$0.40M0.2%N/A0.009%
2/7/2020NorthCoast Asset Management LLC14,393$0.55M0.0%-47.4%0.012%
2/7/2020Tower Research Capital LLC TRC1,364$52K0.0%-52.4%0.001%
2/7/2020Los Angeles Capital Management & Equity Research Inc.148,766$5.64M0.0%+170.7%0.122%
2/7/2020Charles Schwab Investment Management Inc.359,888$13.63M0.0%+7.2%0.295%
2/7/2020Oppenheimer Asset Management Inc.12,731$0.48M0.0%-35.8%0.010%
2/7/2020Oppenheimer & Co. Inc.23,300$0.88M0.0%-24.3%0.019%
2/6/2020Acadian Asset Management LLC84,580$3.20M0.0%+815.3%0.069%
2/6/2020Victory Capital Management Inc.16,617$0.63M0.0%+40.4%0.014%
2/6/2020GAM Holding AG6,263$0.24M0.0%-79.2%0.005%
2/6/2020Sei Investments Co.110,318$4.24M0.0%+3.6%0.090%
2/6/2020Synovus Financial Corp11,935$0.45M0.0%+4.8%0.010%
2/6/2020Cullen Frost Bankers Inc.713$27K0.0%+457.0%0.001%
2/6/2020Stone Ridge Asset Management LLC70,837$2.68M0.2%+20.6%0.058%
2/6/2020State Street Corp908,810$34.43M0.0%+3.8%0.745%
2/6/2020Swiss National Bank121,212$4.59M0.0%+4.2%0.099%
2/5/2020Signaturefd LLC2,312$88K0.0%+3,111.1%0.002%
2/5/2020Rhumbline Advisers42,389$1.61M0.0%+4.3%0.035%
2/5/2020New York State Common Retirement Fund231,454$8.77M0.0%+1.4%0.190%
2/5/2020Clark Estates Inc. NY103,000$3.90M0.6%N/A0.084%
2/5/2020Principal Financial Group Inc.68,424$2.59M0.0%-9.4%0.056%
2/4/2020Victory Capital Management Inc.16,818$0.59M0.0%+42.1%0.014%
2/4/2020US Bancorp DE5,673$0.22M0.0%+95.3%0.005%
2/4/2020Mesirow Financial Investment Management Equity Management173,035$6.56M1.0%-9.5%0.142%
2/3/2020Cadence Capital Management LLC28,763$1.09M0.1%-2.0%0.024%
2/3/2020State Board of Administration of Florida Retirement System32,116$1.22M0.0%-1.3%0.026%
2/3/2020First Trust Advisors LP293,341$11.11M0.0%+917.1%0.240%
2/3/2020Fort Washington Investment Advisors Inc. OH343,031$12.99M0.1%-1.1%0.281%
1/31/2020Diversified Investment Strategies LLC137,565$5.21M5.2%-2.8%0.113%
1/31/2020Icon Advisers Inc. Co.32,532$1.23M0.2%-20.9%0.027%
1/31/2020State of New Jersey Common Pension Fund D64,891$2.46M0.0%-23.8%0.053%
1/29/2020Russell Investments Group Ltd.41,388$1.56M0.0%-55.6%0.034%
1/29/2020Twin Capital Management Inc.87,775$3.33M0.3%-28.7%0.072%
1/29/2020Rice Hall James & Associates LLC1,453,509$55.06M1.9%-26.9%1.191%
1/28/2020SG Americas Securities LLC8,717$0.33M0.0%N/A0.007%
1/27/2020California Public Employees Retirement System121,994$4.62M0.0%+9.1%0.100%
(Data available from 1/1/2016 forward)
This page was last updated on 4/1/2020 by MarketBeat.com Staff

Enter your email address below to receive a concise daily summary of analysts' upgrades, downgrades and new coverage with MarketBeat.com's FREE daily email newsletter.

Yahoo Gemini Pixel